sensor_id;sensor_type;location;lat;lon;timestamp;pressure;altitude;pressure_sealevel;temperature;humidity
65800;BME280;52544;48.116;11.660;2023-02-20T00:00:42;96619.59;;;7.82;78.97
65800;BME280;52544;48.116;11.660;2023-02-20T00:03:08;96621.88;;;7.72;78.93
65800;BME280;52544;48.116;11.660;2023-02-20T00:05:34;96625.63;;;7.68;79.49
65800;BME280;52544;48.116;11.660;2023-02-20T00:07:59;96632.25;;;7.75;78.93
65800;BME280;52544;48.116;11.660;2023-02-20T00:10:25;96627.16;;;7.72;79.08
65800;BME280;52544;48.116;11.660;2023-02-20T00:12:51;96633.38;;;7.71;78.87
65800;BME280;52544;48.116;11.660;2023-02-20T00:15:18;96622.81;;;7.71;78.62
65800;BME280;52544;48.116;11.660;2023-02-20T00:17:44;96638.81;;;7.68;78.98
65800;BME280;52544;48.116;11.660;2023-02-20T00:20:16;96639.69;;;7.69;78.81
65800;BME280;52544;48.116;11.660;2023-02-20T00:22:42;96636.53;;;7.62;79.14
65800;BME280;52544;48.116;11.660;2023-02-20T00:25:08;96634.03;;;7.75;78.63
65800;BME280;52544;48.116;11.660;2023-02-20T00:27:33;96628.25;;;7.68;78.92
65800;BME280;52544;48.116;11.660;2023-02-20T00:29:59;96630.31;;;7.63;79.07
65800;BME280;52544;48.116;11.660;2023-02-20T00:32:24;96634.63;;;7.64;79.21
65800;BME280;52544;48.116;11.660;2023-02-20T00:34:49;96623.00;;;7.68;78.91
65800;BME280;52544;48.116;11.660;2023-02-20T00:37:15;96616.03;;;7.67;79.12
65800;BME280;52544;48.116;11.660;2023-02-20T00:39:40;96626.66;;;7.66;79.07
65800;BME280;52544;48.116;11.660;2023-02-20T00:42:06;96622.94;;;7.70;79.21
65800;BME280;52544;48.116;11.660;2023-02-20T00:44:31;96621.31;;;7.67;79.39
65800;BME280;52544;48.116;11.660;2023-02-20T00:46:57;96624.88;;;7.66;79.39
65800;BME280;52544;48.116;11.660;2023-02-20T00:49:22;96631.44;;;7.59;79.80
65800;BME280;52544;48.116;11.660;2023-02-20T00:51:48;96626.16;;;7.59;80.12
65800;BME280;52544;48.116;11.660;2023-02-20T00:54:14;96629.72;;;7.58;79.82
65800;BME280;52544;48.116;11.660;2023-02-20T00:56:39;96638.47;;;7.59;80.07
65800;BME280;52544;48.116;11.660;2023-02-20T00:59:05;96629.31;;;7.66;79.78
65800;BME280;52544;48.116;11.660;2023-02-20T01:01:30;96629.56;;;7.61;79.90
65800;BME280;52544;48.116;11.660;2023-02-20T01:03:56;96627.28;;;7.55;80.47
65800;BME280;52544;48.116;11.660;2023-02-20T01:06:21;96626.25;;;7.58;79.88
65800;BME280;52544;48.116;11.660;2023-02-20T01:08:46;96624.47;;;7.58;80.10
65800;BME280;52544;48.116;11.660;2023-02-20T01:11:12;96611.28;;;7.58;80.12
65800;BME280;52544;48.116;11.660;2023-02-20T01:13:37;96619.19;;;7.58;80.00
65800;BME280;52544;48.116;11.660;2023-02-20T01:16:03;96619.28;;;7.57;80.25
65800;BME280;52544;48.116;11.660;2023-02-20T01:18:29;96629.91;;;7.55;80.63
65800;BME280;52544;48.116;11.660;2023-02-20T01:20:54;96622.19;;;7.52;80.52
65800;BME280;52544;48.116;11.660;2023-02-20T01:23:20;96616.94;;;7.52;80.57
65800;BME280;52544;48.116;11.660;2023-02-20T01:25:45;96621.50;;;7.48;81.15
65800;BME280;52544;48.116;11.660;2023-02-20T01:28:11;96617.25;;;7.46;81.57
65800;BME280;52544;48.116;11.660;2023-02-20T01:30:36;96621.31;;;7.51;81.71
65800;BME280;52544;48.116;11.660;2023-02-20T01:33:01;96618.03;;;7.48;81.61
65800;BME280;52544;48.116;11.660;2023-02-20T01:35:27;96617.25;;;7.46;81.61
65800;BME280;52544;48.116;11.660;2023-02-20T01:37:57;96616.50;;;7.44;81.99
65800;BME280;52544;48.116;11.660;2023-02-20T01:40:25;96614.53;;;7.47;81.88
65800;BME280;52544;48.116;11.660;2023-02-20T01:42:51;96615.22;;;7.51;81.88
65800;BME280;52544;48.116;11.660;2023-02-20T01:47:50;96621.00;;;7.42;82.51
65800;BME280;52544;48.116;11.660;2023-02-20T01:50:17;96609.34;;;7.46;82.37
65800;BME280;52544;48.116;11.660;2023-02-20T01:52:49;96615.56;;;7.45;82.42
65800;BME280;52544;48.116;11.660;2023-02-20T01:55:19;96615.03;;;7.54;82.27
65800;BME280;52544;48.116;11.660;2023-02-20T01:57:56;96611.03;;;7.47;82.42
65800;BME280;52544;48.116;11.660;2023-02-20T02:00:22;96608.94;;;7.38;82.84
65800;BME280;52544;48.116;11.660;2023-02-20T02:03:00;96601.63;;;7.43;82.57
65800;BME280;52544;48.116;11.660;2023-02-20T02:05:29;96599.25;;;7.38;82.84
65800;BME280;52544;48.116;11.660;2023-02-20T02:07:56;96607.94;;;7.40;82.93
65800;BME280;52544;48.116;11.660;2023-02-20T02:10:30;96608.34;;;7.48;82.24
65800;BME280;52544;48.116;11.660;2023-02-20T02:12:57;96604.44;;;7.40;82.82
65800;BME280;52544;48.116;11.660;2023-02-20T02:15:24;96595.03;;;7.36;83.09
65800;BME280;52544;48.116;11.660;2023-02-20T02:18:12;96600.97;;;7.39;82.80
65800;BME280;52544;48.116;11.660;2023-02-20T02:20:51;96584.28;;;7.39;82.48
65800;BME280;52544;48.116;11.660;2023-02-20T02:37:18;96597.41;;;7.40;82.26
65800;BME280;52544;48.116;11.660;2023-02-20T02:40:13;96588.41;;;7.29;82.62
65800;BME280;52544;48.116;11.660;2023-02-20T02:45:34;96583.44;;;7.38;82.32
65800;BME280;52544;48.116;11.660;2023-02-20T02:48:07;96581.91;;;7.34;82.74
65800;BME280;52544;48.116;11.660;2023-02-20T02:50:39;96587.97;;;7.36;82.85
65800;BME280;52544;48.116;11.660;2023-02-20T02:53:07;96579.22;;;7.36;82.75
65800;BME280;52544;48.116;11.660;2023-02-20T02:55:33;96582.69;;;7.36;82.41
65800;BME280;52544;48.116;11.660;2023-02-20T02:57:59;96578.69;;;7.45;82.35
65800;BME280;52544;48.116;11.660;2023-02-20T03:00:29;96586.19;;;7.37;82.69
65800;BME280;52544;48.116;11.660;2023-02-20T03:06:18;96581.84;;;7.36;82.82
65800;BME280;52544;48.116;11.660;2023-02-20T03:08:26;96578.13;;;7.40;82.45
65800;BME280;52544;48.116;11.660;2023-02-20T03:11:06;96582.59;;;7.38;82.55
65800;BME280;52544;48.116;11.660;2023-02-20T03:13:37;96583.44;;;7.38;82.54
65800;BME280;52544;48.116;11.660;2023-02-20T03:16:39;96589.56;;;7.39;82.66
65800;BME280;52544;48.116;11.660;2023-02-20T03:19:07;96592.28;;;7.37;82.79
65800;BME280;52544;48.116;11.660;2023-02-20T03:21:40;96600.34;;;7.34;82.66
65800;BME280;52544;48.116;11.660;2023-02-20T03:24:09;96580.91;;;7.37;82.29
65800;BME280;52544;48.116;11.660;2023-02-20T03:26:38;96572.06;;;7.38;82.55
65800;BME280;52544;48.116;11.660;2023-02-20T03:29:13;96578.13;;;7.40;82.44
65800;BME280;52544;48.116;11.660;2023-02-20T03:31:50;96572.06;;;7.38;82.34
65800;BME280;52544;48.116;11.660;2023-02-20T03:34:36;96576.66;;;7.34;82.57
65800;BME280;52544;48.116;11.660;2023-02-20T03:37:23;96570.13;;;7.25;83.13
65800;BME280;52544;48.116;11.660;2023-02-20T03:40:11;96562.22;;;7.25;83.13
65800;BME280;52544;48.116;11.660;2023-02-20T03:43:00;96566.81;;;7.22;82.91
65800;BME280;52544;48.116;11.660;2023-02-20T03:45:46;96568.88;;;7.17;83.19
65800;BME280;52544;48.116;11.660;2023-02-20T03:50:50;96567.06;;;7.17;82.85
65800;BME280;52544;48.116;11.660;2023-02-20T03:53:16;96575.16;;;7.14;83.26
65800;BME280;52544;48.116;11.660;2023-02-20T03:55:42;96574.38;;;7.12;83.34
65800;BME280;52544;48.116;11.660;2023-02-20T03:58:11;96566.00;;;7.06;83.50
65800;BME280;52544;48.116;11.660;2023-02-20T04:00:41;96576.00;;;6.99;83.94
65800;BME280;52544;48.116;11.660;2023-02-20T04:03:14;96584.50;;;7.04;83.53
65800;BME280;52544;48.116;11.660;2023-02-20T04:05:43;96590.44;;;6.92;84.14
65800;BME280;52544;48.116;11.660;2023-02-20T04:08:55;96594.59;;;6.96;84.20
65800;BME280;52544;48.116;11.660;2023-02-20T04:11:12;96601.47;;;6.98;84.13
65800;BME280;52544;48.116;11.660;2023-02-20T04:13:40;96595.38;;;6.98;83.90
65800;BME280;52544;48.116;11.660;2023-02-20T04:16:06;96602.00;;;6.89;84.25
65800;BME280;52544;48.116;11.660;2023-02-20T04:18:33;96607.75;;;6.80;84.74
65800;BME280;52544;48.116;11.660;2023-02-20T04:21:03;96600.72;;;6.81;84.70
65800;BME280;52544;48.116;11.660;2023-02-20T04:23:35;96595.97;;;6.71;85.37
65800;BME280;52544;48.116;11.660;2023-02-20T04:26:15;96598.50;;;6.73;85.15
65800;BME280;52544;48.116;11.660;2023-02-20T04:28:42;96598.91;;;6.65;85.60
65800;BME280;52544;48.116;11.660;2023-02-20T04:31:10;96598.75;;;6.68;85.85
65800;BME280;52544;48.116;11.660;2023-02-20T04:33:37;96593.19;;;6.57;85.95
65800;BME280;52544;48.116;11.660;2023-02-20T04:36:02;96589.16;;;6.67;86.09
65800;BME280;52544;48.116;11.660;2023-02-20T04:38:28;96593.63;;;6.65;85.71
65800;BME280;52544;48.116;11.660;2023-02-20T04:40:53;96590.25;;;6.63;85.61
65800;BME280;52544;48.116;11.660;2023-02-20T04:43:20;96586.25;;;6.56;86.05
65800;BME280;52544;48.116;11.660;2023-02-20T04:45:45;96595.66;;;6.60;86.08
65800;BME280;52544;48.116;11.660;2023-02-20T04:48:11;96592.19;;;6.60;86.04
65800;BME280;52544;48.116;11.660;2023-02-20T04:50:36;96590.91;;;6.51;86.43
65800;BME280;52544;48.116;11.660;2023-02-20T04:53:02;96596.41;;;6.46;86.89
65800;BME280;52544;48.116;11.660;2023-02-20T04:55:27;96591.16;;;6.46;86.87
65800;BME280;52544;48.116;11.660;2023-02-20T04:57:53;96593.41;;;6.37;87.15
65800;BME280;52544;48.116;11.660;2023-02-20T05:00:21;96579.00;;;6.44;86.82
65800;BME280;52544;48.116;11.660;2023-02-20T05:02:47;96591.72;;;6.36;87.43
65800;BME280;52544;48.116;11.660;2023-02-20T05:05:21;96584.59;;;6.38;87.24
65800;BME280;52544;48.116;11.660;2023-02-20T05:07:47;96590.00;;;6.35;87.63
65800;BME280;52544;48.116;11.660;2023-02-20T05:10:18;96596.47;;;6.29;87.89
65800;BME280;52544;48.116;11.660;2023-02-20T05:12:44;96594.06;;;6.24;88.01
65800;BME280;52544;48.116;11.660;2023-02-20T05:15:10;96589.72;;;6.23;88.04
65800;BME280;52544;48.116;11.660;2023-02-20T05:17:36;96595.81;;;6.24;88.33
65800;BME280;52544;48.116;11.660;2023-02-20T05:20:02;96592.75;;;6.16;88.21
65800;BME280;52544;48.116;11.660;2023-02-20T05:22:28;96590.28;;;6.13;88.10
65800;BME280;52544;48.116;11.660;2023-02-20T05:24:53;96595.69;;;6.10;89.02
65800;BME280;52544;48.116;11.660;2023-02-20T05:27:20;96599.78;;;6.15;88.61
65800;BME280;52544;48.116;11.660;2023-02-20T05:29:54;96597.50;;;5.92;88.84
65800;BME280;52544;48.116;11.660;2023-02-20T05:32:22;96601.16;;;5.88;89.80
65800;BME280;52544;48.116;11.660;2023-02-20T05:34:48;96601.94;;;5.90;89.79
65800;BME280;52544;48.116;11.660;2023-02-20T05:37:15;96611.69;;;5.88;90.12
65800;BME280;52544;48.116;11.660;2023-02-20T05:39:42;96609.56;;;5.77;90.27
65800;BME280;52544;48.116;11.660;2023-02-20T05:42:07;96616.13;;;5.68;90.67
65800;BME280;52544;48.116;11.660;2023-02-20T05:44:33;96609.06;;;5.70;91.10
65800;BME280;52544;48.116;11.660;2023-02-20T05:47:00;96613.69;;;5.65;91.16
65800;BME280;52544;48.116;11.660;2023-02-20T05:49:25;96613.13;;;5.59;91.54
65800;BME280;52544;48.116;11.660;2023-02-20T05:51:52;96613.03;;;5.60;91.77
65800;BME280;52544;48.116;11.660;2023-02-20T05:54:19;96612.50;;;5.54;91.57
65800;BME280;52544;48.116;11.660;2023-02-20T05:56:46;96615.81;;;5.40;92.18
65800;BME280;52544;48.116;11.660;2023-02-20T05:59:12;96614.31;;;5.34;92.77
65800;BME280;52544;48.116;11.660;2023-02-20T06:01:38;96622.00;;;5.20;93.38
65800;BME280;52544;48.116;11.660;2023-02-20T06:04:03;96621.38;;;5.15;94.26
65800;BME280;52544;48.116;11.660;2023-02-20T06:06:34;96623.44;;;5.08;94.67
65800;BME280;52544;48.116;11.660;2023-02-20T06:08:59;96629.31;;;5.13;95.02
65800;BME280;52544;48.116;11.660;2023-02-20T06:11:25;96631.81;;;5.16;95.50
65800;BME280;52544;48.116;11.660;2023-02-20T06:13:50;96634.16;;;5.22;94.90
65800;BME280;52544;48.116;11.660;2023-02-20T06:16:22;96645.75;;;5.36;94.26
65800;BME280;52544;48.116;11.660;2023-02-20T06:18:48;96640.91;;;5.45;93.38
65800;BME280;52544;48.116;11.660;2023-02-20T06:21:13;96649.63;;;5.46;93.23
65800;BME280;52544;48.116;11.660;2023-02-20T06:23:42;96634.03;;;5.43;92.99
65800;BME280;52544;48.116;11.660;2023-02-20T06:26:10;96644.22;;;5.32;93.78
65800;BME280;52544;48.116;11.660;2023-02-20T06:28:36;96640.66;;;5.33;93.87
65800;BME280;52544;48.116;11.660;2023-02-20T06:31:02;96639.66;;;5.16;94.69
65800;BME280;52544;48.116;11.660;2023-02-20T06:33:28;96641.94;;;5.24;94.63
65800;BME280;52544;48.116;11.660;2023-02-20T06:35:53;96639.22;;;5.25;94.91
65800;BME280;52544;48.116;11.660;2023-02-20T06:38:19;96642.22;;;5.37;94.34
65800;BME280;52544;48.116;11.660;2023-02-20T06:40:44;96642.22;;;5.37;93.80
65800;BME280;52544;48.116;11.660;2023-02-20T06:43:10;96642.97;;;5.39;93.83
65800;BME280;52544;48.116;11.660;2023-02-20T06:45:35;96641.41;;;5.54;92.71
65800;BME280;52544;48.116;11.660;2023-02-20T06:48:01;96642.38;;;5.51;92.86
65800;BME280;52544;48.116;11.660;2023-02-20T06:50:27;96646.56;;;5.55;92.14
65800;BME280;52544;48.116;11.660;2023-02-20T06:52:52;96641.16;;;5.58;91.74
65800;BME280;52544;48.116;11.660;2023-02-20T06:55:18;96644.31;;;5.65;91.42
65800;BME280;52544;48.116;11.660;2023-02-20T06:57:43;96643.41;;;5.66;91.45
65800;BME280;52544;48.116;11.660;2023-02-20T07:00:09;96645.97;;;5.67;90.94
65800;BME280;52544;48.116;11.660;2023-02-20T07:02:34;96648.69;;;5.66;91.49
65800;BME280;52544;48.116;11.660;2023-02-20T07:05:02;96656.19;;;5.73;90.42
65800;BME280;52544;48.116;11.660;2023-02-20T07:07:28;96655.72;;;5.83;90.26
65800;BME280;52544;48.116;11.660;2023-02-20T07:09:53;96647.06;;;5.81;89.96
65800;BME280;52544;48.116;11.660;2023-02-20T07:12:19;96651.84;;;5.90;89.41
65800;BME280;52544;48.116;11.660;2023-02-20T07:14:44;96660.09;;;6.01;88.53
65800;BME280;52544;48.116;11.660;2023-02-20T07:17:09;96655.31;;;6.09;88.43
65800;BME280;52544;48.116;11.660;2023-02-20T07:19:35;96661.78;;;6.02;88.35
65800;BME280;52544;48.116;11.660;2023-02-20T07:22:00;96667.03;;;6.02;88.63
65800;BME280;52544;48.116;11.660;2023-02-20T07:24:26;96672.00;;;6.08;88.37
65800;BME280;52544;48.116;11.660;2023-02-20T07:26:52;96663.66;;;6.17;87.57
65800;BME280;52544;48.116;11.660;2023-02-20T07:29:18;96667.81;;;6.21;87.62
65800;BME280;52544;48.116;11.660;2023-02-20T07:31:43;96666.13;;;6.20;87.33
65800;BME280;52544;48.116;11.660;2023-02-20T07:34:08;96665.47;;;6.33;86.97
65800;BME280;52544;48.116;11.660;2023-02-20T07:36:34;96656.97;;;6.28;86.69
65800;BME280;52544;48.116;11.660;2023-02-20T07:39:01;96656.13;;;6.27;87.12
65800;BME280;52544;48.116;11.660;2023-02-20T07:41:29;96664.47;;;6.35;86.30
65800;BME280;52544;48.116;11.660;2023-02-20T07:44:00;96661.53;;;6.41;86.13
65800;BME280;52544;48.116;11.660;2023-02-20T07:46:26;96662.16;;;6.46;85.82
65800;BME280;52544;48.116;11.660;2023-02-20T07:48:51;96661.06;;;6.50;85.14
65800;BME280;52544;48.116;11.660;2023-02-20T07:51:18;96658.19;;;6.55;84.48
65800;BME280;52544;48.116;11.660;2023-02-20T07:53:47;96658.81;;;6.60;84.51
65800;BME280;52544;48.116;11.660;2023-02-20T07:56:13;96663.91;;;6.63;83.87
65800;BME280;52544;48.116;11.660;2023-02-20T07:58:38;96646.41;;;6.62;82.95
65800;BME280;52544;48.116;11.660;2023-02-20T08:01:04;96652.34;;;6.66;82.39
65800;BME280;52544;48.116;11.660;2023-02-20T08:03:29;96646.50;;;6.61;82.49
65800;BME280;52544;48.116;11.660;2023-02-20T08:05:54;96637.84;;;6.59;82.51
65800;BME280;52544;48.116;11.660;2023-02-20T08:08:20;96641.91;;;6.64;81.86
65800;BME280;52544;48.116;11.660;2023-02-20T08:10:49;96639.78;;;6.71;81.90
65800;BME280;52544;48.116;11.660;2023-02-20T08:13:14;96638.47;;;6.80;81.66
65800;BME280;52544;48.116;11.660;2023-02-20T08:15:40;96630.53;;;6.97;81.12
65800;BME280;52544;48.116;11.660;2023-02-20T08:18:06;96622.44;;;7.00;80.22
65800;BME280;52544;48.116;11.660;2023-02-20T08:20:31;96625.94;;;7.16;79.71
65800;BME280;52544;48.116;11.660;2023-02-20T08:22:57;96614.22;;;7.38;78.21
65800;BME280;52544;48.116;11.660;2023-02-20T08:25:25;96613.34;;;7.69;77.01
65800;BME280;52544;48.116;11.660;2023-02-20T08:27:50;96614.75;;;8.05;74.83
65800;BME280;52544;48.116;11.660;2023-02-20T08:30:19;96615.81;;;8.16;72.44
65800;BME280;52544;48.116;11.660;2023-02-20T08:32:48;96608.75;;;8.17;72.16
65800;BME280;52544;48.116;11.660;2023-02-20T08:35:14;96607.22;;;8.13;71.48
65800;BME280;52544;48.116;11.660;2023-02-20T08:37:40;96604.03;;;8.08;71.51
65800;BME280;52544;48.116;11.660;2023-02-20T08:40:05;96608.34;;;8.09;71.97
65800;BME280;52544;48.116;11.660;2023-02-20T08:42:33;96594.84;;;8.29;71.55
65800;BME280;52544;48.116;11.660;2023-02-20T08:45:00;96593.09;;;8.58;70.00
65800;BME280;52544;48.116;11.660;2023-02-20T08:47:25;96600.06;;;8.59;69.69
65800;BME280;52544;48.116;11.660;2023-02-20T08:49:51;96598.00;;;8.64;69.03
65800;BME280;52544;48.116;11.660;2023-02-20T08:52:16;96583.66;;;8.68;68.89
65800;BME280;52544;48.116;11.660;2023-02-20T08:54:46;96592.69;;;8.93;69.20
65800;BME280;52544;48.116;11.660;2023-02-20T08:57:12;96589.66;;;8.99;67.53
65800;BME280;52544;48.116;11.660;2023-02-20T08:59:38;96587.50;;;9.06;66.83
65800;BME280;52544;48.116;11.660;2023-02-20T09:02:05;96576.44;;;8.99;66.57
65800;BME280;52544;48.116;11.660;2023-02-20T09:04:31;96576.44;;;8.99;66.58
65800;BME280;52544;48.116;11.660;2023-02-20T09:06:56;96586.75;;;8.89;66.82
65800;BME280;52544;48.116;11.660;2023-02-20T09:09:21;96585.53;;;8.81;66.43
65800;BME280;52544;48.116;11.660;2023-02-20T09:11:47;96570.06;;;8.74;67.02
65800;BME280;52544;48.116;11.660;2023-02-20T09:14:12;96560.16;;;8.78;67.21
65800;BME280;52544;48.116;11.660;2023-02-20T09:16:38;96553.25;;;9.04;67.27
65800;BME280;52544;48.116;11.660;2023-02-20T09:19:07;96541.72;;;9.59;65.84
65800;BME280;52544;48.116;11.660;2023-02-20T09:21:32;96552.91;;;9.90;64.09
65800;BME280;52544;48.116;11.660;2023-02-20T09:23:58;96546.63;;;10.31;62.06
65800;BME280;52544;48.116;11.660;2023-02-20T09:26:23;96562.25;;;10.72;60.82
65800;BME280;52544;48.116;11.660;2023-02-20T09:28:49;96549.47;;;11.02;58.67
65800;BME280;52544;48.116;11.660;2023-02-20T09:31:14;96534.81;;;11.22;57.92
65800;BME280;52544;48.116;11.660;2023-02-20T09:33:44;96545.34;;;11.35;55.88
65800;BME280;52544;48.116;11.660;2023-02-20T09:36:10;96542.38;;;11.40;55.79
65800;BME280;52544;48.116;11.660;2023-02-20T09:38:35;96532.53;;;11.53;55.68
65800;BME280;52544;48.116;11.660;2023-02-20T09:41:01;96531.97;;;11.85;55.13
65800;BME280;52544;48.116;11.660;2023-02-20T09:46:19;96536.56;;;12.51;53.17
65800;BME280;52544;48.116;11.660;2023-02-20T09:49:20;96536.91;;;12.47;51.59
65800;BME280;52544;48.116;11.660;2023-02-20T09:51:55;96530.13;;;12.20;51.76
65800;BME280;52544;48.116;11.660;2023-02-20T09:54:31;96518.81;;;12.30;52.46
65800;BME280;52544;48.116;11.660;2023-02-20T09:57:00;96508.22;;;12.63;52.55
65800;BME280;52544;48.116;11.660;2023-02-20T10:02:02;96493.34;;;12.83;50.59
65800;BME280;52544;48.116;11.660;2023-02-20T10:04:41;96484.97;;;13.10;50.08
65800;BME280;52544;48.116;11.660;2023-02-20T10:07:23;96490.03;;;13.13;49.70
65800;BME280;52544;48.116;11.660;2023-02-20T10:09:49;96491.97;;;13.22;49.40
65800;BME280;52544;48.116;11.660;2023-02-20T10:17:49;96470.22;;;13.49;48.19
65800;BME280;52544;48.116;11.660;2023-02-20T10:20:40;96490.31;;;13.74;47.96
65800;BME280;52544;48.116;11.660;2023-02-20T10:25:53;96486.22;;;13.91;47.18
65800;BME280;52544;48.116;11.660;2023-02-20T10:28:20;96490.19;;;13.97;47.24
65800;BME280;52544;48.116;11.660;2023-02-20T10:33:30;96482.13;;;14.08;46.49
65800;BME280;52544;48.116;11.660;2023-02-20T10:36:18;96490.38;;;13.84;46.21
65800;BME280;52544;48.116;11.660;2023-02-20T10:38:52;96483.91;;;13.98;46.61
65800;BME280;52544;48.116;11.660;2023-02-20T10:41:37;96472.31;;;14.30;45.99
65800;BME280;52544;48.116;11.660;2023-02-20T10:44:52;96467.22;;;13.96;45.26
65800;BME280;52544;48.116;11.660;2023-02-20T10:47:03;96458.97;;;13.78;46.20
65800;BME280;52544;48.116;11.660;2023-02-20T10:49:37;96460.41;;;13.61;46.36
65800;BME280;52544;48.116;11.660;2023-02-20T10:52:10;96456.50;;;13.86;45.70
65800;BME280;52544;48.116;11.660;2023-02-20T10:54:40;96449.22;;;14.09;45.64
65800;BME280;52544;48.116;11.660;2023-02-20T11:00:16;96441.31;;;14.49;44.76
65800;BME280;52544;48.116;11.660;2023-02-20T11:02:52;96439.03;;;14.75;44.21
65800;BME280;52544;48.116;11.660;2023-02-20T11:05:22;96441.59;;;14.87;43.75
65800;BME280;52544;48.116;11.660;2023-02-20T11:07:49;96436.09;;;14.79;43.45
65800;BME280;52544;48.116;11.660;2023-02-20T11:10:14;96434.28;;;14.89;43.67
65800;BME280;52544;48.116;11.660;2023-02-20T11:12:43;96425.94;;;15.13;43.11
65800;BME280;52544;48.116;11.660;2023-02-20T11:15:14;96409.63;;;15.16;42.28
65800;BME280;52544;48.116;11.660;2023-02-20T11:17:41;96408.78;;;15.15;42.27
65800;BME280;52544;48.116;11.660;2023-02-20T11:22:58;96405.03;;;15.47;40.91
65800;BME280;52544;48.116;11.660;2023-02-20T11:25:27;96397.56;;;15.31;41.90
65800;BME280;52544;48.116;11.660;2023-02-20T11:27:57;96394.91;;;15.41;41.57
65800;BME280;52544;48.116;11.660;2023-02-20T11:30:33;96382.94;;;15.55;41.87
65800;BME280;52544;48.116;11.660;2023-02-20T11:35:40;96382.00;;;15.56;41.35
65800;BME280;52544;48.116;11.660;2023-02-20T11:43:34;96386.44;;;15.84;40.88
65800;BME280;52544;48.116;11.660;2023-02-20T11:46:19;96367.47;;;15.87;40.66
65800;BME280;52544;48.116;11.660;2023-02-20T11:51:40;96359.22;;;15.81;40.71
65800;BME280;52544;48.116;11.660;2023-02-20T11:54:15;96358.00;;;15.65;40.94
65800;BME280;52544;48.116;11.660;2023-02-20T11:57:01;96354.63;;;15.44;41.58
65800;BME280;52544;48.116;11.660;2023-02-20T11:59:36;96348.31;;;15.64;41.59
65800;BME280;52544;48.116;11.660;2023-02-20T12:07:25;96344.50;;;15.67;41.24
65800;BME280;52544;48.116;11.660;2023-02-20T12:09:54;96338.31;;;15.76;40.95
65800;BME280;52544;48.116;11.660;2023-02-20T12:12:22;96327.31;;;15.79;41.71
65800;BME280;52544;48.116;11.660;2023-02-20T12:14:51;96325.06;;;15.94;41.34
65800;BME280;52544;48.116;11.660;2023-02-20T12:17:42;96320.88;;;15.82;40.86
65800;BME280;52544;48.116;11.660;2023-02-20T12:20:16;96327.88;;;15.83;40.64
65800;BME280;52544;48.116;11.660;2023-02-20T12:26:24;96307.25;;;15.85;40.89
65800;BME280;52544;48.116;11.660;2023-02-20T12:38:03;96289.63;;;16.47;39.26
65800;BME280;52544;48.116;11.660;2023-02-20T12:43:46;96280.88;;;16.55;38.05
65800;BME280;52544;48.116;11.660;2023-02-20T12:46:20;96278.84;;;16.39;38.14
65800;BME280;52544;48.116;11.660;2023-02-20T12:51:31;96264.22;;;16.61;38.21
65800;BME280;52544;48.116;11.660;2023-02-20T12:59:43;96254.84;;;17.10;36.31
65800;BME280;52544;48.116;11.660;2023-02-20T13:02:24;96256.03;;;17.34;36.80
65800;BME280;52544;48.116;11.660;2023-02-20T13:04:54;96249.34;;;17.82;36.45
65800;BME280;52544;48.116;11.660;2023-02-20T13:07:36;96232.56;;;17.80;36.70
65800;BME280;52544;48.116;11.660;2023-02-20T13:12:34;96243.97;;;17.82;36.97
65800;BME280;52544;48.116;11.660;2023-02-20T13:17:59;96225.81;;;17.67;37.37
65800;BME280;52544;48.116;11.660;2023-02-20T13:20:31;96230.31;;;17.67;37.18
65800;BME280;52544;48.116;11.660;2023-02-20T13:30:37;96224.00;;;18.61;35.53
65800;BME280;52544;48.116;11.660;2023-02-20T13:33:20;96224.78;;;18.37;36.05
65800;BME280;52544;48.116;11.660;2023-02-20T13:35:54;96218.72;;;18.27;35.95
65800;BME280;52544;48.116;11.660;2023-02-20T13:38:22;96219.44;;;18.45;35.54
65800;BME280;52544;48.116;11.660;2023-02-20T13:43:32;96221.41;;;18.35;35.76
65800;BME280;52544;48.116;11.660;2023-02-20T13:53:55;96215.31;;;18.16;36.46
65800;BME280;52544;48.116;11.660;2023-02-20T13:58:57;96211.63;;;18.01;36.09
65800;BME280;52544;48.116;11.660;2023-02-20T14:01:23;96216.88;;;18.27;35.83
65800;BME280;52544;48.116;11.660;2023-02-20T14:04:05;96209.72;;;18.36;35.58
65800;BME280;52544;48.116;11.660;2023-02-20T14:06:31;96210.75;;;18.59;34.88
65800;BME280;52544;48.116;11.660;2023-02-20T14:09:12;96208.25;;;18.66;35.03
65800;BME280;52544;48.116;11.660;2023-02-20T14:11:39;96209.75;;;18.68;35.30
65800;BME280;52544;48.116;11.660;2023-02-20T14:14:28;96206.75;;;18.71;34.74
65800;BME280;52544;48.116;11.660;2023-02-20T14:17:13;96187.59;;;18.42;34.48
65800;BME280;52544;48.116;11.660;2023-02-20T14:19:45;96193.56;;;18.11;34.92
65800;BME280;52544;48.116;11.660;2023-02-20T14:22:24;96178.28;;;18.04;35.14
65800;BME280;52544;48.116;11.660;2023-02-20T14:25:28;96171.28;;;18.03;34.74
65800;BME280;52544;48.116;11.660;2023-02-20T14:28:07;96176.94;;;17.65;35.39
65800;BME280;52544;48.116;11.660;2023-02-20T14:30:34;96180.72;;;17.46;36.13
65800;BME280;52544;48.116;11.660;2023-02-20T14:33:00;96180.81;;;17.37;36.30
65800;BME280;52544;48.116;11.660;2023-02-20T14:35:38;96176.72;;;17.24;36.39
65800;BME280;52544;48.116;11.660;2023-02-20T14:40:40;96172.72;;;17.03;37.49
65800;BME280;52544;48.116;11.660;2023-02-20T14:43:21;96163.03;;;17.02;37.33
65800;BME280;52544;48.116;11.660;2023-02-20T14:45:58;96163.91;;;16.84;37.26
65800;BME280;52544;48.116;11.660;2023-02-20T14:48:27;96165.75;;;16.66;37.36
65800;BME280;52544;48.116;11.660;2023-02-20T14:51:03;96159.09;;;16.52;38.00
65800;BME280;52544;48.116;11.660;2023-02-20T14:53:34;96162.63;;;16.53;38.29
65800;BME280;52544;48.116;11.660;2023-02-20T14:56:14;96149.72;;;16.30;38.59
65800;BME280;52544;48.116;11.660;2023-02-20T14:58:40;96155.31;;;16.37;39.08
65800;BME280;52544;48.116;11.660;2023-02-20T15:03:45;96143.09;;;16.34;39.10
65800;BME280;52544;48.116;11.660;2023-02-20T15:06:21;96139.59;;;16.16;39.77
65800;BME280;52544;48.116;11.660;2023-02-20T15:08:46;96143.47;;;16.21;39.17